sensor_id;sensor_type;location;lat;lon;timestamp;pressure;altitude;pressure_sealevel;temperature;humidity
75136;BME280;63707;52.212;9.540;2023-12-29T00:01:14;99249.88;;;8.99;100.00
75136;BME280;63707;52.212;9.540;2023-12-29T00:03:39;99248.00;;;8.99;100.00
75136;BME280;63707;52.212;9.540;2023-12-29T00:06:05;99263.88;;;8.96;100.00
75136;BME280;63707;52.212;9.540;2023-12-29T00:08:31;99238.81;;;9.00;100.00
75136;BME280;63707;52.212;9.540;2023-12-29T00:10:56;99236.31;;;8.99;100.00
75136;BME280;63707;52.212;9.540;2023-12-29T00:13:22;99245.91;;;9.01;100.00
75136;BME280;63707;52.212;9.540;2023-12-29T00:15:52;99239.84;;;8.99;100.00
75136;BME280;63707;52.212;9.540;2023-12-29T00:18:18;99240.47;;;9.01;100.00
75136;BME280;63707;52.212;9.540;2023-12-29T00:20:44;99242.53;;;9.06;100.00
75136;BME280;63707;52.212;9.540;2023-12-29T00:23:09;99242.31;;;9.07;100.00
75136;BME280;63707;52.212;9.540;2023-12-29T00:25:35;99242.97;;;9.03;100.00
75136;BME280;63707;52.212;9.540;2023-12-29T00:28:02;99245.47;;;9.04;100.00
75136;BME280;63707;52.212;9.540;2023-12-29T00:30:27;99230.84;;;9.05;100.00
75136;BME280;63707;52.212;9.540;2023-12-29T00:32:56;99234.38;;;9.06;100.00
75136;BME280;63707;52.212;9.540;2023-12-29T00:35:21;99229.78;;;9.06;100.00
75136;BME280;63707;52.212;9.540;2023-12-29T00:37:47;99242.09;;;9.09;100.00
75136;BME280;63707;52.212;9.540;2023-12-29T00:40:13;99245.03;;;9.07;100.00
75136;BME280;63707;52.212;9.540;2023-12-29T00:42:38;99240.03;;;9.04;100.00
75136;BME280;63707;52.212;9.540;2023-12-29T00:45:06;99243.59;;;9.05;100.00
75136;BME280;63707;52.212;9.540;2023-12-29T00:47:31;99232.50;;;9.06;100.00
75136;BME280;63707;52.212;9.540;2023-12-29T00:49:58;99230.63;;;9.07;100.00
75136;BME280;63707;52.212;9.540;2023-12-29T00:52:24;99223.53;;;9.06;100.00
75136;BME280;63707;52.212;9.540;2023-12-29T00:54:49;99224.78;;;9.03;100.00
75136;BME280;63707;52.212;9.540;2023-12-29T00:57:15;99211.19;;;9.03;100.00
75136;BME280;63707;52.212;9.540;2023-12-29T00:59:40;99220.41;;;9.02;100.00
75136;BME280;63707;52.212;9.540;2023-12-29T01:02:06;99216.03;;;9.01;100.00
75136;BME280;63707;52.212;9.540;2023-12-29T01:04:32;99215.19;;;9.01;100.00
75136;BME280;63707;52.212;9.540;2023-12-29T01:06:59;99201.00;;;8.99;100.00
75136;BME280;63707;52.212;9.540;2023-12-29T01:09:26;99195.75;;;8.97;100.00
75136;BME280;63707;52.212;9.540;2023-12-29T01:11:51;99190.94;;;8.99;100.00
75136;BME280;63707;52.212;9.540;2023-12-29T01:14:17;99198.06;;;9.00;100.00
75136;BME280;63707;52.212;9.540;2023-12-29T01:16:42;99210.59;;;9.01;100.00
75136;BME280;63707;52.212;9.540;2023-12-29T01:19:08;99207.88;;;9.01;100.00
75136;BME280;63707;52.212;9.540;2023-12-29T01:21:33;99208.47;;;9.03;100.00
75136;BME280;63707;52.212;9.540;2023-12-29T01:24:01;99199.09;;;8.99;100.00
75136;BME280;63707;52.212;9.540;2023-12-29T01:26:28;99197.22;;;9.00;100.00
75136;BME280;63707;52.212;9.540;2023-12-29T01:28:54;99198.47;;;8.97;100.00
75136;BME280;63707;52.212;9.540;2023-12-29T01:31:19;99213.72;;;8.98;100.00
75136;BME280;63707;52.212;9.540;2023-12-29T01:33:45;99207.66;;;8.96;100.00
75136;BME280;63707;52.212;9.540;2023-12-29T01:36:17;99211.25;;;8.90;100.00
75136;BME280;63707;52.212;9.540;2023-12-29T01:38:42;99206.91;;;8.82;100.00
75136;BME280;63707;52.212;9.540;2023-12-29T01:41:09;99203.38;;;8.75;100.00
75136;BME280;63707;52.212;9.540;2023-12-29T01:43:34;99187.06;;;8.75;100.00
75136;BME280;63707;52.212;9.540;2023-12-29T01:46:00;99196.69;;;8.78;100.00
75136;BME280;63707;52.212;9.540;2023-12-29T01:48:26;99186.88;;;8.77;100.00
75136;BME280;63707;52.212;9.540;2023-12-29T01:50:52;99182.88;;;8.79;100.00
75136;BME280;63707;52.212;9.540;2023-12-29T01:53:19;99195.19;;;8.82;100.00
75136;BME280;63707;52.212;9.540;2023-12-29T01:55:45;99182.22;;;8.84;100.00
75136;BME280;63707;52.212;9.540;2023-12-29T01:58:12;99176.56;;;8.86;100.00
75136;BME280;63707;52.212;9.540;2023-12-29T02:00:39;99180.34;;;8.84;100.00
75136;BME280;63707;52.212;9.540;2023-12-29T02:03:04;99174.50;;;8.81;100.00
75136;BME280;63707;52.212;9.540;2023-12-29T02:05:30;99176.19;;;8.82;100.00
75136;BME280;63707;52.212;9.540;2023-12-29T02:07:56;99178.84;;;8.89;100.00
75136;BME280;63707;52.212;9.540;2023-12-29T02:10:22;99171.53;;;8.89;100.00
75136;BME280;63707;52.212;9.540;2023-12-29T02:12:49;99166.53;;;8.86;100.00
75136;BME280;63707;52.212;9.540;2023-12-29T02:15:16;99167.16;;;8.88;100.00
75136;BME280;63707;52.212;9.540;2023-12-29T02:17:46;99161.72;;;8.88;100.00
75136;BME280;63707;52.212;9.540;2023-12-29T02:20:13;99155.69;;;8.86;100.00
75136;BME280;63707;52.212;9.540;2023-12-29T02:22:39;99162.16;;;8.85;100.00
75136;BME280;63707;52.212;9.540;2023-12-29T02:25:06;99148.78;;;8.83;100.00
75136;BME280;63707;52.212;9.540;2023-12-29T02:27:40;99152.97;;;8.86;100.00
75136;BME280;63707;52.212;9.540;2023-12-29T02:30:09;99139.59;;;8.84;100.00
75136;BME280;63707;52.212;9.540;2023-12-29T02:32:41;99147.53;;;8.86;100.00
75136;BME280;63707;52.212;9.540;2023-12-29T02:35:09;99141.88;;;8.88;100.00
75136;BME280;63707;52.212;9.540;2023-12-29T02:37:37;99151.44;;;8.97;100.00
75136;BME280;63707;52.212;9.540;2023-12-29T02:40:03;99134.06;;;8.98;100.00
75136;BME280;63707;52.212;9.540;2023-12-29T02:42:30;99131.38;;;8.98;100.00
75136;BME280;63707;52.212;9.540;2023-12-29T02:44:56;99141.81;;;9.01;100.00
75136;BME280;63707;52.212;9.540;2023-12-29T02:47:21;99130.13;;;9.00;100.00
75136;BME280;63707;52.212;9.540;2023-12-29T02:49:47;99125.31;;;9.02;100.00
75136;BME280;63707;52.212;9.540;2023-12-29T02:52:14;99137.63;;;8.98;100.00
75136;BME280;63707;52.212;9.540;2023-12-29T02:54:39;99123.63;;;9.01;100.00
75136;BME280;63707;52.212;9.540;2023-12-29T02:57:05;99125.31;;;8.96;100.00
75136;BME280;63707;52.212;9.540;2023-12-29T02:59:32;99148.94;;;8.95;100.00
75136;BME280;63707;52.212;9.540;2023-12-29T03:01:57;99134.31;;;8.96;100.00
75136;BME280;63707;52.212;9.540;2023-12-29T03:04:23;99130.13;;;8.94;100.00
75136;BME280;63707;52.212;9.540;2023-12-29T03:06:48;99124.91;;;8.92;100.00
75136;BME280;63707;52.212;9.540;2023-12-29T03:09:14;99111.72;;;8.96;100.00
75136;BME280;63707;52.212;9.540;2023-12-29T03:11:39;99113.00;;;9.00;100.00
75136;BME280;63707;52.212;9.540;2023-12-29T03:14:05;99089.53;;;9.05;100.00
75136;BME280;63707;52.212;9.540;2023-12-29T03:16:31;99075.47;;;9.15;100.00
75136;BME280;63707;52.212;9.540;2023-12-29T03:18:57;99074.78;;;9.20;100.00
75136;BME280;63707;52.212;9.540;2023-12-29T03:21:22;99086.88;;;9.24;100.00
75136;BME280;63707;52.212;9.540;2023-12-29T03:23:48;99079.72;;;9.29;100.00
75136;BME280;63707;52.212;9.540;2023-12-29T03:26:13;99091.81;;;9.33;100.00
75136;BME280;63707;52.212;9.540;2023-12-29T03:28:39;99082.28;;;9.24;100.00
75136;BME280;63707;52.212;9.540;2023-12-29T03:31:04;99083.72;;;9.02;100.00
75136;BME280;63707;52.212;9.540;2023-12-29T03:33:32;99093.81;;;8.88;100.00
75136;BME280;63707;52.212;9.540;2023-12-29T03:35:57;99098.91;;;8.78;100.00
75136;BME280;63707;52.212;9.540;2023-12-29T03:38:22;99074.22;;;8.79;100.00
75136;BME280;63707;52.212;9.540;2023-12-29T03:40:48;99096.22;;;8.71;100.00
75136;BME280;63707;52.212;9.540;2023-12-29T03:43:13;99116.09;;;8.65;100.00
75136;BME280;63707;52.212;9.540;2023-12-29T03:45:39;99113.22;;;8.60;100.00
75136;BME280;63707;52.212;9.540;2023-12-29T03:48:05;99121.38;;;8.54;100.00
75136;BME280;63707;52.212;9.540;2023-12-29T03:50:32;99129.53;;;8.47;100.00
75136;BME280;63707;52.212;9.540;2023-12-29T03:52:57;99139.63;;;8.27;100.00
75136;BME280;63707;52.212;9.540;2023-12-29T03:55:23;99129.41;;;8.22;100.00
75136;BME280;63707;52.212;9.540;2023-12-29T03:57:48;99133.81;;;8.16;100.00
75136;BME280;63707;52.212;9.540;2023-12-29T04:00:14;99140.94;;;8.11;100.00
75136;BME280;63707;52.212;9.540;2023-12-29T04:02:40;99143.84;;;8.09;100.00
75136;BME280;63707;52.212;9.540;2023-12-29T04:05:07;99155.31;;;8.11;100.00
75136;BME280;63707;52.212;9.540;2023-12-29T04:07:34;99138.22;;;8.11;100.00
75136;BME280;63707;52.212;9.540;2023-12-29T04:10:00;99136.13;;;8.13;100.00
75136;BME280;63707;52.212;9.540;2023-12-29T04:12:25;99151.78;;;8.11;100.00
75136;BME280;63707;52.212;9.540;2023-12-29T04:14:51;99145.72;;;8.15;100.00
75136;BME280;63707;52.212;9.540;2023-12-29T04:17:16;99125.06;;;8.14;100.00
75136;BME280;63707;52.212;9.540;2023-12-29T04:19:42;99119.41;;;8.16;100.00
75136;BME280;63707;52.212;9.540;2023-12-29T04:22:07;99114.63;;;8.11;100.00
75136;BME280;63707;52.212;9.540;2023-12-29T04:24:37;99110.47;;;8.09;100.00
75136;BME280;63707;52.212;9.540;2023-12-29T04:27:03;99101.91;;;8.12;100.00
75136;BME280;63707;52.212;9.540;2023-12-29T04:29:28;99099.81;;;8.14;100.00
75136;BME280;63707;52.212;9.540;2023-12-29T04:31:54;99076.84;;;8.16;100.00
75136;BME280;63707;52.212;9.540;2023-12-29T04:34:19;99070.13;;;8.19;100.00
75136;BME280;63707;52.212;9.540;2023-12-29T04:36:45;99091.41;;;8.22;100.00
75136;BME280;63707;52.212;9.540;2023-12-29T04:39:10;99099.78;;;8.20;100.00
75136;BME280;63707;52.212;9.540;2023-12-29T04:41:37;99085.16;;;8.21;100.00
75136;BME280;63707;52.212;9.540;2023-12-29T04:44:03;99092.66;;;8.26;100.00
75136;BME280;63707;52.212;9.540;2023-12-29T04:46:28;99083.03;;;8.30;100.00
75136;BME280;63707;52.212;9.540;2023-12-29T04:48:54;99078.66;;;8.29;100.00
75136;BME280;63707;52.212;9.540;2023-12-29T04:51:19;99089.75;;;8.21;100.00
75136;BME280;63707;52.212;9.540;2023-12-29T04:53:45;99081.41;;;8.16;100.00
75136;BME280;63707;52.212;9.540;2023-12-29T04:56:11;99090.44;;;8.10;100.00
75136;BME280;63707;52.212;9.540;2023-12-29T04:58:38;99109.00;;;8.06;100.00
75136;BME280;63707;52.212;9.540;2023-12-29T05:01:03;99095.00;;;8.03;100.00
75136;BME280;63707;52.212;9.540;2023-12-29T05:03:29;99110.03;;;7.99;100.00
75136;BME280;63707;52.212;9.540;2023-12-29T05:05:54;99111.13;;;7.91;100.00
75136;BME280;63707;52.212;9.540;2023-12-29T05:08:20;99120.31;;;7.83;100.00
75136;BME280;63707;52.212;9.540;2023-12-29T05:10:45;99138.06;;;7.79;100.00
75136;BME280;63707;52.212;9.540;2023-12-29T05:13:11;99149.94;;;7.85;100.00
75136;BME280;63707;52.212;9.540;2023-12-29T05:15:38;99137.38;;;7.97;100.00
75136;BME280;63707;52.212;9.540;2023-12-29T05:18:03;99123.81;;;8.04;100.00
75136;BME280;63707;52.212;9.540;2023-12-29T05:20:29;99119.63;;;8.01;100.00
75136;BME280;63707;52.212;9.540;2023-12-29T05:22:54;99121.09;;;7.97;100.00
75136;BME280;63707;52.212;9.540;2023-12-29T05:25:20;99118.59;;;8.02;100.00
75136;BME280;63707;52.212;9.540;2023-12-29T05:27:47;99121.31;;;8.02;100.00
75136;BME280;63707;52.212;9.540;2023-12-29T05:30:13;99115.47;;;8.05;100.00
75136;BME280;63707;52.212;9.540;2023-12-29T05:32:40;99111.91;;;8.11;100.00
75136;BME280;63707;52.212;9.540;2023-12-29T05:35:06;99125.69;;;8.10;100.00
75136;BME280;63707;52.212;9.540;2023-12-29T05:37:31;99128.59;;;8.15;100.00
75136;BME280;63707;52.212;9.540;2023-12-29T05:39:57;99127.34;;;8.17;100.00
75136;BME280;63707;52.212;9.540;2023-12-29T05:42:22;99123.16;;;8.21;100.00
75136;BME280;63707;52.212;9.540;2023-12-29T05:44:48;99115.66;;;8.17;100.00
75136;BME280;63707;52.212;9.540;2023-12-29T05:47:13;99124.63;;;8.17;100.00
75136;BME280;63707;52.212;9.540;2023-12-29T05:49:40;99124.19;;;8.20;100.00
75136;BME280;63707;52.212;9.540;2023-12-29T05:52:06;99125.03;;;8.21;100.00
75136;BME280;63707;52.212;9.540;2023-12-29T05:54:32;99124.19;;;8.20;100.00
75136;BME280;63707;52.212;9.540;2023-12-29T05:56:58;99120.66;;;8.20;100.00
75136;BME280;63707;52.212;9.540;2023-12-29T05:59:23;99120.22;;;8.23;100.00
75136;BME280;63707;52.212;9.540;2023-12-29T06:01:49;99126.44;;;8.30;100.00
75136;BME280;63707;52.212;9.540;2023-12-29T06:04:14;99117.25;;;8.31;100.00
75136;BME280;63707;52.212;9.540;2023-12-29T06:06:42;99122.28;;;8.34;100.00
75136;BME280;63707;52.212;9.540;2023-12-29T06:09:08;99124.78;;;8.36;100.00
75136;BME280;63707;52.212;9.540;2023-12-29T06:11:34;99115.38;;;8.38;100.00
75136;BME280;63707;52.212;9.540;2023-12-29T06:14:00;99102.44;;;8.40;100.00
75136;BME280;63707;52.212;9.540;2023-12-29T06:16:25;99107.19;;;8.45;100.00
75136;BME280;63707;52.212;9.540;2023-12-29T06:18:52;99113.28;;;8.40;100.00
75136;BME280;63707;52.212;9.540;2023-12-29T06:21:18;99112.44;;;8.40;100.00
75136;BME280;63707;52.212;9.540;2023-12-29T06:23:45;99124.34;;;8.39;100.00
75136;BME280;63707;52.212;9.540;2023-12-29T06:26:14;99118.50;;;8.42;100.00
75136;BME280;63707;52.212;9.540;2023-12-29T06:28:40;99115.97;;;8.47;100.00
75136;BME280;63707;52.212;9.540;2023-12-29T06:31:05;99100.06;;;8.50;100.00
75136;BME280;63707;52.212;9.540;2023-12-29T06:33:31;99089.03;;;8.52;100.00
75136;BME280;63707;52.212;9.540;2023-12-29T06:35:56;99089.81;;;8.59;100.00
75136;BME280;63707;52.212;9.540;2023-12-29T06:38:22;99081.06;;;8.57;100.00
75136;BME280;63707;52.212;9.540;2023-12-29T06:40:49;99093.81;;;8.57;100.00
75136;BME280;63707;52.212;9.540;2023-12-29T06:43:14;99095.03;;;8.61;100.00
75136;BME280;63707;52.212;9.540;2023-12-29T06:45:40;99084.81;;;8.56;100.00
75136;BME280;63707;52.212;9.540;2023-12-29T06:48:06;99091.38;;;9.11;100.00
75136;BME280;63707;52.212;9.540;2023-12-29T06:50:31;99096.44;;;8.70;100.00
75136;BME280;63707;52.212;9.540;2023-12-29T06:52:57;99096.88;;;8.67;100.00
75136;BME280;63707;52.212;9.540;2023-12-29T06:55:24;99100.00;;;8.70;100.00
75136;BME280;63707;52.212;9.540;2023-12-29T06:57:50;99079.31;;;8.69;100.00
75136;BME280;63707;52.212;9.540;2023-12-29T07:00:17;99081.59;;;8.72;100.00
75136;BME280;63707;52.212;9.540;2023-12-29T07:02:42;99110.03;;;8.70;100.00
75136;BME280;63707;52.212;9.540;2023-12-29T07:05:08;99093.47;;;8.78;100.00
75136;BME280;63707;52.212;9.540;2023-12-29T07:07:34;99098.94;;;8.71;100.00
75136;BME280;63707;52.212;9.540;2023-12-29T07:10:00;99103.66;;;8.82;100.00
75136;BME280;63707;52.212;9.540;2023-12-29T07:12:25;99104.78;;;8.75;100.00
75136;BME280;63707;52.212;9.540;2023-12-29T07:14:52;99120.22;;;8.74;100.00
75136;BME280;63707;52.212;9.540;2023-12-29T07:17:18;99108.53;;;8.74;100.00
75136;BME280;63707;52.212;9.540;2023-12-29T07:19:43;99106.88;;;8.73;100.00
75136;BME280;63707;52.212;9.540;2023-12-29T07:22:09;99113.31;;;8.78;100.00
75136;BME280;63707;52.212;9.540;2023-12-29T07:24:35;99110.41;;;8.73;100.00
75136;BME280;63707;52.212;9.540;2023-12-29T07:27:01;99122.72;;;8.76;100.00
75136;BME280;63707;52.212;9.540;2023-12-29T07:29:26;99103.72;;;8.76;100.00
75136;BME280;63707;52.212;9.540;2023-12-29T07:31:53;99115.19;;;8.78;100.00
75136;BME280;63707;52.212;9.540;2023-12-29T07:34:19;99120.84;;;8.76;100.00
75136;BME280;63707;52.212;9.540;2023-12-29T07:36:44;99109.97;;;8.76;100.00
75136;BME280;63707;52.212;9.540;2023-12-29T07:39:10;99113.09;;;8.80;100.00
75136;BME280;63707;52.212;9.540;2023-12-29T07:41:39;99098.63;;;8.86;100.00
75136;BME280;63707;52.212;9.540;2023-12-29T07:44:05;99123.09;;;8.86;100.00
75136;BME280;63707;52.212;9.540;2023-12-29T07:46:30;99129.78;;;8.83;100.00
75136;BME280;63707;52.212;9.540;2023-12-29T07:48:57;99126.41;;;8.88;100.00
75136;BME280;63707;52.212;9.540;2023-12-29T07:51:23;99138.09;;;8.89;100.00
75136;BME280;63707;52.212;9.540;2023-12-29T07:53:48;99127.47;;;8.87;100.00
75136;BME280;63707;52.212;9.540;2023-12-29T07:56:14;99119.50;;;8.92;100.00
75136;BME280;63707;52.212;9.540;2023-12-29T07:58:39;99136.78;;;8.98;100.00
75136;BME280;63707;52.212;9.540;2023-12-29T08:01:05;99133.66;;;9.01;100.00
75136;BME280;63707;52.212;9.540;2023-12-29T08:03:30;99118.19;;;9.01;100.00
75136;BME280;63707;52.212;9.540;2023-12-29T08:05:57;99116.31;;;9.02;100.00
75136;BME280;63707;52.212;9.540;2023-12-29T08:08:23;99126.75;;;9.05;100.00
75136;BME280;63707;52.212;9.540;2023-12-29T08:10:48;99125.31;;;9.02;100.00
75136;BME280;63707;52.212;9.540;2023-12-29T08:13:14;99139.72;;;9.03;100.00
75136;BME280;63707;52.212;9.540;2023-12-29T08:15:39;99127.59;;;9.05;100.00
75136;BME280;63707;52.212;9.540;2023-12-29T08:18:05;99150.16;;;9.06;100.00
75136;BME280;63707;52.212;9.540;2023-12-29T08:20:30;99131.53;;;9.09;100.00
75136;BME280;63707;52.212;9.540;2023-12-29T08:22:57;99137.19;;;9.08;100.00
75136;BME280;63707;52.212;9.540;2023-12-29T08:25:23;99166.22;;;9.07;100.00
75136;BME280;63707;52.212;9.540;2023-12-29T08:27:48;99156.59;;;9.11;100.00
75136;BME280;63707;52.212;9.540;2023-12-29T08:30:14;99151.56;;;9.15;100.00
75136;BME280;63707;52.212;9.540;2023-12-29T08:32:39;99155.97;;;9.09;100.00
75136;BME280;63707;52.212;9.540;2023-12-29T08:35:05;99142.78;;;9.13;100.00
75136;BME280;63707;52.212;9.540;2023-12-29T08:37:31;99150.94;;;9.13;100.00
75136;BME280;63707;52.212;9.540;2023-12-29T08:39:59;99153.22;;;9.16;100.00
75136;BME280;63707;52.212;9.540;2023-12-29T08:42:25;99130.03;;;9.13;100.00
75136;BME280;63707;52.212;9.540;2023-12-29T08:44:52;99151.78;;;9.13;100.00
75136;BME280;63707;52.212;9.540;2023-12-29T08:47:17;99150.09;;;9.12;100.00
75136;BME280;63707;52.212;9.540;2023-12-29T08:49:43;99143.78;;;9.19;100.00
75136;BME280;63707;52.212;9.540;2023-12-29T08:52:08;99141.91;;;9.19;100.00
75136;BME280;63707;52.212;9.540;2023-12-29T08:54:34;99138.34;;;9.19;100.00
75136;BME280;63707;52.212;9.540;2023-12-29T08:57:01;99136.47;;;9.19;100.00
75136;BME280;63707;52.212;9.540;2023-12-29T08:59:26;99133.09;;;9.24;100.00
75136;BME280;63707;52.212;9.540;2023-12-29T09:01:52;99124.94;;;9.24;100.00
75136;BME280;63707;52.212;9.540;2023-12-29T09:04:17;99129.97;;;9.20;100.00
75136;BME280;63707;52.212;9.540;2023-12-29T09:06:43;99125.16;;;9.22;100.00
75136;BME280;63707;52.212;9.540;2023-12-29T09:09:09;99113.22;;;9.23;100.00
75136;BME280;63707;52.212;9.540;2023-12-29T09:11:38;99117.44;;;9.19;100.00
75136;BME280;63707;52.212;9.540;2023-12-29T09:14:05;99121.81;;;9.20;100.00
75136;BME280;63707;52.212;9.540;2023-12-29T09:16:30;99142.56;;;9.14;100.00
75136;BME280;63707;52.212;9.540;2023-12-29T09:18:56;99144.28;;;9.09;100.00
75136;BME280;63707;52.212;9.540;2023-12-29T09:21:21;99161.91;;;8.93;100.00
75136;BME280;63707;52.212;9.540;2023-12-29T09:23:47;99171.09;;;8.47;100.00
75136;BME280;63707;52.212;9.540;2023-12-29T09:26:12;99187.41;;;8.41;100.00
75136;BME280;63707;52.212;9.540;2023-12-29T09:28:41;99184.34;;;8.11;100.00
75136;BME280;63707;52.212;9.540;2023-12-29T09:31:08;99195.84;;;7.67;100.00
75136;BME280;63707;52.212;9.540;2023-12-29T09:33:33;99226.28;;;7.82;100.00
75136;BME280;63707;52.212;9.540;2023-12-29T09:35:59;99227.72;;;7.45;100.00
75136;BME280;63707;52.212;9.540;2023-12-29T09:38:24;99226.03;;;7.37;100.00
75136;BME280;63707;52.212;9.540;2023-12-29T09:40:50;99234.78;;;7.39;100.00
75136;BME280;63707;52.212;9.540;2023-12-29T09:43:19;99233.56;;;7.55;100.00
75136;BME280;63707;52.212;9.540;2023-12-29T09:45:45;99223.75;;;7.47;100.00
75136;BME280;63707;52.212;9.540;2023-12-29T09:48:13;99236.84;;;7.11;100.00
75136;BME280;63707;52.212;9.540;2023-12-29T09:50:42;99225.25;;;6.82;100.00
75136;BME280;63707;52.212;9.540;2023-12-29T09:53:10;99226.94;;;6.83;100.00
75136;BME280;63707;52.212;9.540;2023-12-29T09:55:38;99233.59;;;6.87;100.00
75136;BME280;63707;52.212;9.540;2023-12-29T09:58:05;99235.31;;;6.95;100.00
75136;BME280;63707;52.212;9.540;2023-12-29T10:00:33;99232.59;;;7.02;100.00
75136;BME280;63707;52.212;9.540;2023-12-29T10:03:00;99244.28;;;7.09;100.00
75136;BME280;63707;52.212;9.540;2023-12-29T10:05:27;99241.41;;;7.10;100.00
75136;BME280;63707;52.212;9.540;2023-12-29T10:07:53;99248.75;;;7.23;100.00
75136;BME280;63707;52.212;9.540;2023-12-29T10:10:20;99247.94;;;7.36;100.00
75136;BME280;63707;52.212;9.540;2023-12-29T10:12:48;99230.44;;;7.51;100.00
75136;BME280;63707;52.212;9.540;2023-12-29T10:15:19;99235.69;;;7.60;100.00
75136;BME280;63707;52.212;9.540;2023-12-29T10:17:51;99231.88;;;7.54;100.00
75136;BME280;63707;52.212;9.540;2023-12-29T10:20:25;99240.44;;;7.51;100.00
75136;BME280;63707;52.212;9.540;2023-12-29T10:23:08;99220.84;;;7.42;100.00
75136;BME280;63707;52.212;9.540;2023-12-29T10:25:34;99226.47;;;7.47;100.00
75136;BME280;63707;52.212;9.540;2023-12-29T10:28:01;99221.03;;;7.34;100.00
75136;BME280;63707;52.212;9.540;2023-12-29T10:30:26;99026.34;;;7.31;100.00
75136;BME280;63707;52.212;9.540;2023-12-29T10:32:52;99218.50;;;7.19;100.00
75136;BME280;63707;52.212;9.540;2023-12-29T10:35:18;99228.72;;;7.24;100.00
75136;BME280;63707;52.212;9.540;2023-12-29T10:37:44;99231.66;;;7.36;100.00
75136;BME280;63707;52.212;9.540;2023-12-29T10:40:16;99232.50;;;7.43;100.00
75136;BME280;63707;52.212;9.540;2023-12-29T10:42:51;99212.28;;;7.52;100.00
75136;BME280;63707;52.212;9.540;2023-12-29T10:45:17;99230.25;;;7.60;100.00
75136;BME280;63707;52.212;9.540;2023-12-29T10:47:43;99228.59;;;7.65;100.00
75136;BME280;63707;52.212;9.540;2023-12-29T10:50:09;99228.78;;;7.64;100.00
75136;BME280;63707;52.212;9.540;2023-12-29T10:52:35;99208.97;;;7.76;100.00
75136;BME280;63707;52.212;9.540;2023-12-29T10:55:06;99215.25;;;7.77;100.00
75136;BME280;63707;52.212;9.540;2023-12-29T10:57:33;99216.28;;;7.89;100.00
75136;BME280;63707;52.212;9.540;2023-12-29T10:59:59;99201.03;;;7.95;100.00
75136;BME280;63707;52.212;9.540;2023-12-29T11:02:29;99179.94;;;7.97;100.00
75136;BME280;63707;52.212;9.540;2023-12-29T11:05:04;99185.19;;;8.05;100.00
75136;BME280;63707;52.212;9.540;2023-12-29T11:07:33;99177.66;;;8.07;100.00
75136;BME280;63707;52.212;9.540;2023-12-29T11:10:00;99162.19;;;8.20;100.00
75136;BME280;63707;52.212;9.540;2023-12-29T11:12:26;99119.16;;;8.24;100.00
75136;BME280;63707;52.212;9.540;2023-12-29T11:14:53;99115.59;;;8.30;100.00
75136;BME280;63707;52.212;9.540;2023-12-29T11:17:19;99118.94;;;8.32;100.00
75136;BME280;63707;52.212;9.540;2023-12-29T11:19:46;99117.47;;;8.36;100.00
75136;BME280;63707;52.212;9.540;2023-12-29T11:22:16;99098.22;;;8.44;100.00
75136;BME280;63707;52.212;9.540;2023-12-29T11:24:42;99103.84;;;8.49;100.00
75136;BME280;63707;52.212;9.540;2023-12-29T11:27:11;99115.75;;;8.48;100.00
75136;BME280;63707;52.212;9.540;2023-12-29T11:29:38;99095.66;;;8.63;100.00
75136;BME280;63707;52.212;9.540;2023-12-29T11:32:12;99109.00;;;8.64;100.00
75136;BME280;63707;52.212;9.540;2023-12-29T11:34:42;99111.50;;;8.66;100.00
75136;BME280;63707;52.212;9.540;2023-12-29T11:37:16;99102.31;;;8.67;100.00
75136;BME280;63707;52.212;9.540;2023-12-29T11:39:50;99091.00;;;8.70;100.00
75136;BME280;63707;52.212;9.540;2023-12-29T11:42:21;99092.03;;;8.75;100.00
75136;BME280;63707;52.212;9.540;2023-12-29T11:44:48;99083.44;;;8.78;100.00
75136;BME280;63707;52.212;9.540;2023-12-29T11:47:36;99101.41;;;8.79;100.00
75136;BME280;63707;52.212;9.540;2023-12-29T11:50:05;99087.19;;;8.77;100.00
75136;BME280;63707;52.212;9.540;2023-12-29T11:52:34;99089.91;;;8.77;100.00
75136;BME280;63707;52.212;9.540;2023-12-29T11:55:07;99080.28;;;8.81;100.00
75136;BME280;63707;52.212;9.540;2023-12-29T11:57:33;99075.03;;;8.87;100.00
75136;BME280;63707;52.212;9.540;2023-12-29T11:59:58;99088.22;;;8.83;100.00
75136;BME280;63707;52.212;9.540;2023-12-29T12:02:27;99089.44;;;8.87;100.00
75136;BME280;63707;52.212;9.540;2023-12-29T12:04:55;99084.16;;;8.92;100.00
75136;BME280;63707;52.212;9.540;2023-12-29T12:10:29;99072.66;;;8.97;100.00
75136;BME280;63707;52.212;9.540;2023-12-29T12:12:56;99074.59;;;8.90;100.00
75136;BME280;63707;52.212;9.540;2023-12-29T12:15:32;99088.59;;;8.87;100.00
75136;BME280;63707;52.212;9.540;2023-12-29T12:17:59;99077.97;;;8.85;100.00
75136;BME280;63707;52.212;9.540;2023-12-29T12:20:26;99094.44;;;8.90;100.00
75136;BME280;63707;52.212;9.540;2023-12-29T12:22:59;99101.31;;;8.93;100.00
75136;BME280;63707;52.212;9.540;2023-12-29T12:25:25;99095.47;;;8.89;100.00
75136;BME280;63707;52.212;9.540;2023-12-29T12:27:51;99110.63;;;8.72;100.00
75136;BME280;63707;52.212;9.540;2023-12-29T12:30:18;99117.00;;;8.52;100.00
75136;BME280;63707;52.212;9.540;2023-12-29T12:32:44;99122.63;;;8.51;100.00
75136;BME280;63707;52.212;9.540;2023-12-29T12:35:15;99114.47;;;8.51;100.00
75136;BME280;63707;52.212;9.540;2023-12-29T12:37:45;99127.84;;;8.59;100.00
75136;BME280;63707;52.212;9.540;2023-12-29T12:40:11;99112.78;;;8.63;100.00
75136;BME280;63707;52.212;9.540;2023-12-29T12:42:49;99114.84;;;8.68;100.00
75136;BME280;63707;52.212;9.540;2023-12-29T12:45:17;99107.09;;;8.71;100.00
75136;BME280;63707;52.212;9.540;2023-12-29T12:47:49;99103.53;;;8.71;100.00
75136;BME280;63707;52.212;9.540;2023-12-29T12:50:15;99105.22;;;8.72;100.00
75136;BME280;63707;52.212;9.540;2023-12-29T12:52:41;99103.75;;;8.69;100.00
75136;BME280;63707;52.212;9.540;2023-12-29T12:55:09;99105.25;;;8.65;100.00
75136;BME280;63707;52.212;9.540;2023-12-29T12:57:35;99098.75;;;8.66;100.00
75136;BME280;63707;52.212;9.540;2023-12-29T13:00:02;99110.06;;;8.63;100.00